sensor_id;sensor_type;location;lat;lon;timestamp;P1;durP1;ratioP1;P2;durP2;ratioP2
33279;SDS011;20403;43.114;12.434;2023-08-24T00:01:30;6.93;;;4.65;;
33279;SDS011;20403;43.114;12.434;2023-08-24T00:03:55;7.28;;;5.30;;
33279;SDS011;20403;43.114;12.434;2023-08-24T00:06:21;9.50;;;5.50;;
33279;SDS011;20403;43.114;12.434;2023-08-24T00:08:46;6.75;;;5.32;;
33279;SDS011;20403;43.114;12.434;2023-08-24T00:11:12;6.97;;;5.10;;
33279;SDS011;20403;43.114;12.434;2023-08-24T00:13:42;7.38;;;5.18;;
33279;SDS011;20403;43.114;12.434;2023-08-24T00:16:16;7.18;;;5.28;;
33279;SDS011;20403;43.114;12.434;2023-08-24T00:18:42;6.88;;;5.35;;
33279;SDS011;20403;43.114;12.434;2023-08-24T00:21:08;11.32;;;5.63;;
33279;SDS011;20403;43.114;12.434;2023-08-24T00:23:33;8.70;;;5.57;;
33279;SDS011;20403;43.114;12.434;2023-08-24T00:25:59;7.93;;;4.55;;
33279;SDS011;20403;43.114;12.434;2023-08-24T00:28:25;7.75;;;5.20;;
33279;SDS011;20403;43.114;12.434;2023-08-24T00:30:50;8.98;;;5.32;;
33279;SDS011;20403;43.114;12.434;2023-08-24T00:33:16;10.05;;;5.03;;
33279;SDS011;20403;43.114;12.434;2023-08-24T00:35:41;11.55;;;5.15;;
33279;SDS011;20403;43.114;12.434;2023-08-24T00:38:07;8.07;;;4.78;;
33279;SDS011;20403;43.114;12.434;2023-08-24T00:40:32;7.78;;;5.05;;
33279;SDS011;20403;43.114;12.434;2023-08-24T00:42:58;4.95;;;4.45;;
33279;SDS011;20403;43.114;12.434;2023-08-24T00:45:23;5.80;;;4.70;;
33279;SDS011;20403;43.114;12.434;2023-08-24T00:47:48;7.22;;;4.65;;
33279;SDS011;20403;43.114;12.434;2023-08-24T00:50:15;5.78;;;5.13;;
33279;SDS011;20403;43.114;12.434;2023-08-24T00:52:42;7.80;;;4.15;;
33279;SDS011;20403;43.114;12.434;2023-08-24T00:55:09;9.30;;;4.97;;
33279;SDS011;20403;43.114;12.434;2023-08-24T00:57:35;8.02;;;5.00;;
33279;SDS011;20403;43.114;12.434;2023-08-24T01:00:03;7.20;;;4.65;;
33279;SDS011;20403;43.114;12.434;2023-08-24T01:02:31;8.10;;;5.13;;
33279;SDS011;20403;43.114;12.434;2023-08-24T01:04:57;5.18;;;4.65;;
33279;SDS011;20403;43.114;12.434;2023-08-24T01:07:24;5.60;;;4.82;;
33279;SDS011;20403;43.114;12.434;2023-08-24T01:09:50;12.25;;;5.10;;
33279;SDS011;20403;43.114;12.434;2023-08-24T01:15:03;6.82;;;4.88;;
33279;SDS011;20403;43.114;12.434;2023-08-24T01:17:29;12.10;;;5.53;;
33279;SDS011;20403;43.114;12.434;2023-08-24T01:19:56;5.05;;;4.40;;
33279;SDS011;20403;43.114;12.434;2023-08-24T01:24:53;8.63;;;4.75;;
33279;SDS011;20403;43.114;12.434;2023-08-24T01:27:25;8.70;;;4.45;;
33279;SDS011;20403;43.114;12.434;2023-08-24T01:29:53;7.57;;;5.18;;
33279;SDS011;20403;43.114;12.434;2023-08-24T01:32:22;7.32;;;5.00;;
33279;SDS011;20403;43.114;12.434;2023-08-24T01:34:47;5.97;;;4.65;;
33279;SDS011;20403;43.114;12.434;2023-08-24T01:37:13;9.30;;;4.95;;
33279;SDS011;20403;43.114;12.434;2023-08-24T01:42:19;6.40;;;4.82;;
33279;SDS011;20403;43.114;12.434;2023-08-24T01:44:50;5.53;;;4.90;;
33279;SDS011;20403;43.114;12.434;2023-08-24T01:47:20;9.63;;;4.53;;
33279;SDS011;20403;43.114;12.434;2023-08-24T01:49:47;7.72;;;5.07;;
33279;SDS011;20403;43.114;12.434;2023-08-24T01:52:13;5.57;;;4.80;;
33279;SDS011;20403;43.114;12.434;2023-08-24T01:54:39;7.00;;;5.00;;
33279;SDS011;20403;43.114;12.434;2023-08-24T01:57:05;7.10;;;4.70;;
33279;SDS011;20403;43.114;12.434;2023-08-24T01:59:31;6.93;;;4.50;;
33279;SDS011;20403;43.114;12.434;2023-08-24T02:01:57;9.75;;;4.32;;
33279;SDS011;20403;43.114;12.434;2023-08-24T02:04:22;8.00;;;5.10;;
33279;SDS011;20403;43.114;12.434;2023-08-24T02:06:48;6.88;;;4.68;;
33279;SDS011;20403;43.114;12.434;2023-08-24T02:09:13;5.00;;;4.50;;
33279;SDS011;20403;43.114;12.434;2023-08-24T02:11:38;5.47;;;4.75;;
33279;SDS011;20403;43.114;12.434;2023-08-24T02:14:04;9.93;;;4.88;;
33279;SDS011;20403;43.114;12.434;2023-08-24T02:16:29;6.68;;;5.07;;
33279;SDS011;20403;43.114;12.434;2023-08-24T02:18:55;5.68;;;4.75;;
33279;SDS011;20403;43.114;12.434;2023-08-24T02:21:21;5.90;;;4.43;;
33279;SDS011;20403;43.114;12.434;2023-08-24T02:23:46;9.75;;;4.82;;
33279;SDS011;20403;43.114;12.434;2023-08-24T02:26:12;7.35;;;4.80;;
33279;SDS011;20403;43.114;12.434;2023-08-24T02:28:37;6.53;;;5.05;;
33279;SDS011;20403;43.114;12.434;2023-08-24T02:31:03;8.88;;;4.53;;
33279;SDS011;20403;43.114;12.434;2023-08-24T02:33:30;5.13;;;4.63;;
33279;SDS011;20403;43.114;12.434;2023-08-24T02:35:56;8.50;;;4.68;;
33279;SDS011;20403;43.114;12.434;2023-08-24T02:38:22;9.85;;;4.90;;
33279;SDS011;20403;43.114;12.434;2023-08-24T02:40:48;10.65;;;4.63;;
33279;SDS011;20403;43.114;12.434;2023-08-24T02:43:14;5.82;;;5.07;;
33279;SDS011;20403;43.114;12.434;2023-08-24T02:45:39;8.68;;;4.85;;
33279;SDS011;20403;43.114;12.434;2023-08-24T02:48:04;6.75;;;4.45;;
33279;SDS011;20403;43.114;12.434;2023-08-24T02:50:30;6.75;;;5.00;;
33279;SDS011;20403;43.114;12.434;2023-08-24T02:52:56;6.93;;;4.90;;
33279;SDS011;20403;43.114;12.434;2023-08-24T02:55:23;8.77;;;5.20;;
33279;SDS011;20403;43.114;12.434;2023-08-24T02:57:49;8.23;;;4.63;;
33279;SDS011;20403;43.114;12.434;2023-08-24T03:00:14;7.25;;;5.10;;
33279;SDS011;20403;43.114;12.434;2023-08-24T03:02:40;8.05;;;5.00;;
33279;SDS011;20403;43.114;12.434;2023-08-24T03:05:05;6.57;;;4.78;;
33279;SDS011;20403;43.114;12.434;2023-08-24T03:07:31;6.78;;;4.93;;
33279;SDS011;20403;43.114;12.434;2023-08-24T03:09:57;8.27;;;5.03;;
33279;SDS011;20403;43.114;12.434;2023-08-24T03:12:22;7.22;;;4.70;;
33279;SDS011;20403;43.114;12.434;2023-08-24T03:14:50;7.78;;;4.32;;
33279;SDS011;20403;43.114;12.434;2023-08-24T03:17:17;10.43;;;4.70;;
33279;SDS011;20403;43.114;12.434;2023-08-24T03:19:42;6.15;;;5.00;;
33279;SDS011;20403;43.114;12.434;2023-08-24T03:22:07;6.43;;;4.72;;
33279;SDS011;20403;43.114;12.434;2023-08-24T03:24:33;8.10;;;4.70;;
33279;SDS011;20403;43.114;12.434;2023-08-24T03:26:58;6.40;;;4.82;;
33279;SDS011;20403;43.114;12.434;2023-08-24T03:29:24;7.13;;;5.00;;
33279;SDS011;20403;43.114;12.434;2023-08-24T03:31:49;6.63;;;4.22;;
33279;SDS011;20403;43.114;12.434;2023-08-24T03:34:14;5.60;;;4.50;;
33279;SDS011;20403;43.114;12.434;2023-08-24T03:36:40;11.57;;;5.20;;
33279;SDS011;20403;43.114;12.434;2023-08-24T03:39:06;8.10;;;4.88;;
33279;SDS011;20403;43.114;12.434;2023-08-24T03:41:31;7.18;;;4.47;;
33279;SDS011;20403;43.114;12.434;2023-08-24T03:43:57;19.98;;;5.28;;
33279;SDS011;20403;43.114;12.434;2023-08-24T03:46:22;27.30;;;6.25;;
33279;SDS011;20403;43.114;12.434;2023-08-24T03:48:47;32.72;;;6.38;;
33279;SDS011;20403;43.114;12.434;2023-08-24T03:51:13;25.30;;;5.55;;
33279;SDS011;20403;43.114;12.434;2023-08-24T03:53:38;31.27;;;6.18;;
33279;SDS011;20403;43.114;12.434;2023-08-24T03:56:04;17.40;;;5.32;;
33279;SDS011;20403;43.114;12.434;2023-08-24T03:58:29;18.58;;;4.88;;
33279;SDS011;20403;43.114;12.434;2023-08-24T04:00:54;17.80;;;5.57;;
33279;SDS011;20403;43.114;12.434;2023-08-24T04:03:20;12.35;;;5.88;;
33279;SDS011;20403;43.114;12.434;2023-08-24T04:05:46;7.97;;;4.72;;
33279;SDS011;20403;43.114;12.434;2023-08-24T04:08:11;17.35;;;4.93;;
33279;SDS011;20403;43.114;12.434;2023-08-24T04:10:37;14.73;;;4.80;;
33279;SDS011;20403;43.114;12.434;2023-08-24T04:13:03;8.80;;;4.60;;
33279;SDS011;20403;43.114;12.434;2023-08-24T04:15:28;12.65;;;4.93;;
33279;SDS011;20403;43.114;12.434;2023-08-24T04:17:53;13.43;;;4.65;;
33279;SDS011;20403;43.114;12.434;2023-08-24T04:20:19;12.85;;;4.70;;
33279;SDS011;20403;43.114;12.434;2023-08-24T04:22:44;5.30;;;4.30;;
33279;SDS011;20403;43.114;12.434;2023-08-24T04:25:10;19.80;;;5.28;;
33279;SDS011;20403;43.114;12.434;2023-08-24T04:27:36;8.00;;;4.47;;
33279;SDS011;20403;43.114;12.434;2023-08-24T04:30:02;12.63;;;5.25;;
33279;SDS011;20403;43.114;12.434;2023-08-24T04:32:28;9.73;;;4.38;;
33279;SDS011;20403;43.114;12.434;2023-08-24T04:34:54;7.70;;;4.35;;
33279;SDS011;20403;43.114;12.434;2023-08-24T04:37:19;7.20;;;4.97;;
33279;SDS011;20403;43.114;12.434;2023-08-24T04:39:45;8.43;;;4.55;;
33279;SDS011;20403;43.114;12.434;2023-08-24T04:42:11;7.10;;;4.50;;
33279;SDS011;20403;43.114;12.434;2023-08-24T04:44:36;7.28;;;4.60;;
33279;SDS011;20403;43.114;12.434;2023-08-24T04:47:01;8.98;;;4.53;;
33279;SDS011;20403;43.114;12.434;2023-08-24T04:49:27;5.15;;;4.07;;
33279;SDS011;20403;43.114;12.434;2023-08-24T04:51:53;6.28;;;4.53;;
33279;SDS011;20403;43.114;12.434;2023-08-24T04:54:19;18.83;;;5.35;;
33279;SDS011;20403;43.114;12.434;2023-08-24T04:56:44;9.38;;;4.78;;
33279;SDS011;20403;43.114;12.434;2023-08-24T04:59:09;15.65;;;4.90;;
33279;SDS011;20403;43.114;12.434;2023-08-24T05:01:35;5.32;;;4.45;;
33279;SDS011;20403;43.114;12.434;2023-08-24T05:04:02;9.07;;;4.45;;
33279;SDS011;20403;43.114;12.434;2023-08-24T05:06:27;5.75;;;4.85;;
33279;SDS011;20403;43.114;12.434;2023-08-24T05:08:52;5.38;;;4.43;;
33279;SDS011;20403;43.114;12.434;2023-08-24T05:11:19;9.40;;;4.80;;
33279;SDS011;20403;43.114;12.434;2023-08-24T05:13:47;6.82;;;4.97;;
33279;SDS011;20403;43.114;12.434;2023-08-24T05:16:12;5.93;;;4.53;;
33279;SDS011;20403;43.114;12.434;2023-08-24T05:18:38;8.30;;;4.85;;
33279;SDS011;20403;43.114;12.434;2023-08-24T05:21:04;7.00;;;4.80;;
33279;SDS011;20403;43.114;12.434;2023-08-24T05:23:31;5.85;;;4.22;;
33279;SDS011;20403;43.114;12.434;2023-08-24T05:25:57;7.40;;;4.45;;
33279;SDS011;20403;43.114;12.434;2023-08-24T05:28:24;9.27;;;5.45;;
33279;SDS011;20403;43.114;12.434;2023-08-24T05:30:51;8.38;;;4.88;;
33279;SDS011;20403;43.114;12.434;2023-08-24T05:33:16;8.00;;;4.63;;
33279;SDS011;20403;43.114;12.434;2023-08-24T05:35:42;9.63;;;5.22;;
33279;SDS011;20403;43.114;12.434;2023-08-24T05:38:07;7.63;;;5.10;;
33279;SDS011;20403;43.114;12.434;2023-08-24T05:40:36;9.23;;;5.03;;
33279;SDS011;20403;43.114;12.434;2023-08-24T05:43:02;7.18;;;5.00;;
33279;SDS011;20403;43.114;12.434;2023-08-24T05:45:28;8.27;;;5.18;;
33279;SDS011;20403;43.114;12.434;2023-08-24T05:47:53;9.98;;;5.25;;
33279;SDS011;20403;43.114;12.434;2023-08-24T05:50:19;10.55;;;4.88;;
33279;SDS011;20403;43.114;12.434;2023-08-24T05:52:44;13.80;;;4.95;;
33279;SDS011;20403;43.114;12.434;2023-08-24T05:55:10;6.65;;;4.80;;
33279;SDS011;20403;43.114;12.434;2023-08-24T05:57:35;12.43;;;5.50;;
33279;SDS011;20403;43.114;12.434;2023-08-24T06:00:01;8.65;;;4.97;;
33279;SDS011;20403;43.114;12.434;2023-08-24T06:02:27;7.63;;;5.45;;
33279;SDS011;20403;43.114;12.434;2023-08-24T06:04:53;8.10;;;5.70;;
33279;SDS011;20403;43.114;12.434;2023-08-24T06:07:18;7.57;;;4.80;;
33279;SDS011;20403;43.114;12.434;2023-08-24T06:09:43;7.03;;;4.60;;
33279;SDS011;20403;43.114;12.434;2023-08-24T06:12:09;10.65;;;5.25;;
33279;SDS011;20403;43.114;12.434;2023-08-24T06:14:35;8.63;;;5.00;;
33279;SDS011;20403;43.114;12.434;2023-08-24T06:17:00;12.95;;;5.32;;
33279;SDS011;20403;43.114;12.434;2023-08-24T06:19:26;8.63;;;5.15;;
33279;SDS011;20403;43.114;12.434;2023-08-24T06:21:51;14.40;;;5.10;;
33279;SDS011;20403;43.114;12.434;2023-08-24T06:24:16;8.75;;;4.90;;
33279;SDS011;20403;43.114;12.434;2023-08-24T06:26:42;8.82;;;5.10;;
33279;SDS011;20403;43.114;12.434;2023-08-24T06:29:07;10.80;;;4.75;;
33279;SDS011;20403;43.114;12.434;2023-08-24T06:31:33;10.77;;;5.18;;
33279;SDS011;20403;43.114;12.434;2023-08-24T06:33:58;7.13;;;4.57;;
33279;SDS011;20403;43.114;12.434;2023-08-24T06:36:24;15.40;;;5.00;;
33279;SDS011;20403;43.114;12.434;2023-08-24T06:38:49;9.63;;;5.30;;
33279;SDS011;20403;43.114;12.434;2023-08-24T06:41:15;7.82;;;4.43;;
33279;SDS011;20403;43.114;12.434;2023-08-24T06:43:40;12.68;;;5.38;;
33279;SDS011;20403;43.114;12.434;2023-08-24T06:46:06;10.57;;;5.80;;
33279;SDS011;20403;43.114;12.434;2023-08-24T06:48:35;6.18;;;4.90;;
33279;SDS011;20403;43.114;12.434;2023-08-24T06:51:02;11.70;;;5.20;;
33279;SDS011;20403;43.114;12.434;2023-08-24T06:53:28;11.00;;;4.82;;
33279;SDS011;20403;43.114;12.434;2023-08-24T06:55:54;15.77;;;4.90;;
33279;SDS011;20403;43.114;12.434;2023-08-24T06:58:22;6.22;;;4.80;;
33279;SDS011;20403;43.114;12.434;2023-08-24T07:00:48;11.52;;;5.22;;
33279;SDS011;20403;43.114;12.434;2023-08-24T07:03:16;6.30;;;4.65;;
33279;SDS011;20403;43.114;12.434;2023-08-24T07:05:42;8.00;;;5.00;;
33279;SDS011;20403;43.114;12.434;2023-08-24T07:08:08;11.65;;;4.72;;
33279;SDS011;20403;43.114;12.434;2023-08-24T07:10:34;10.05;;;5.07;;
33279;SDS011;20403;43.114;12.434;2023-08-24T07:13:00;8.75;;;4.03;;
33279;SDS011;20403;43.114;12.434;2023-08-24T07:15:25;11.55;;;4.63;;
33279;SDS011;20403;43.114;12.434;2023-08-24T07:17:51;18.73;;;4.75;;
33279;SDS011;20403;43.114;12.434;2023-08-24T07:20:16;9.32;;;4.70;;
33279;SDS011;20403;43.114;12.434;2023-08-24T07:22:41;15.73;;;4.53;;
33279;SDS011;20403;43.114;12.434;2023-08-24T07:25:07;13.48;;;5.20;;
33279;SDS011;20403;43.114;12.434;2023-08-24T07:27:33;13.93;;;4.93;;
33279;SDS011;20403;43.114;12.434;2023-08-24T07:29:59;20.65;;;5.03;;
33279;SDS011;20403;43.114;12.434;2023-08-24T07:32:26;10.02;;;4.47;;
33279;SDS011;20403;43.114;12.434;2023-08-24T07:34:52;13.13;;;4.93;;
33279;SDS011;20403;43.114;12.434;2023-08-24T07:37:17;9.15;;;4.82;;
33279;SDS011;20403;43.114;12.434;2023-08-24T07:39:43;7.30;;;4.70;;
33279;SDS011;20403;43.114;12.434;2023-08-24T07:42:08;10.27;;;4.15;;
33279;SDS011;20403;43.114;12.434;2023-08-24T07:44:33;12.50;;;4.60;;
33279;SDS011;20403;43.114;12.434;2023-08-24T07:46:59;7.30;;;4.13;;
33279;SDS011;20403;43.114;12.434;2023-08-24T07:49:25;9.65;;;4.85;;
33279;SDS011;20403;43.114;12.434;2023-08-24T07:51:51;10.07;;;4.00;;
33279;SDS011;20403;43.114;12.434;2023-08-24T07:54:16;15.32;;;4.30;;
33279;SDS011;20403;43.114;12.434;2023-08-24T07:56:42;6.78;;;4.10;;
33279;SDS011;20403;43.114;12.434;2023-08-24T07:59:07;9.65;;;4.32;;
33279;SDS011;20403;43.114;12.434;2023-08-24T08:01:33;11.38;;;4.25;;
33279;SDS011;20403;43.114;12.434;2023-08-24T08:03:58;8.38;;;3.80;;
33279;SDS011;20403;43.114;12.434;2023-08-24T08:06:25;10.77;;;4.00;;
33279;SDS011;20403;43.114;12.434;2023-08-24T08:08:51;11.25;;;4.40;;
33279;SDS011;20403;43.114;12.434;2023-08-24T08:11:17;11.80;;;3.95;;
33279;SDS011;20403;43.114;12.434;2023-08-24T08:13:43;6.55;;;4.63;;
33279;SDS011;20403;43.114;12.434;2023-08-24T08:16:09;7.88;;;4.05;;
33279;SDS011;20403;43.114;12.434;2023-08-24T08:18:35;8.73;;;4.03;;
33279;SDS011;20403;43.114;12.434;2023-08-24T08:21:01;7.72;;;4.35;;
33279;SDS011;20403;43.114;12.434;2023-08-24T08:23:33;8.48;;;4.43;;
33279;SDS011;20403;43.114;12.434;2023-08-24T08:25:58;6.85;;;3.95;;
33279;SDS011;20403;43.114;12.434;2023-08-24T08:28:24;5.32;;;3.78;;
33279;SDS011;20403;43.114;12.434;2023-08-24T08:30:49;8.32;;;4.40;;
33279;SDS011;20403;43.114;12.434;2023-08-24T08:33:15;11.95;;;4.95;;
33279;SDS011;20403;43.114;12.434;2023-08-24T08:35:40;13.38;;;4.90;;
33279;SDS011;20403;43.114;12.434;2023-08-24T08:38:06;12.70;;;4.40;;
33279;SDS011;20403;43.114;12.434;2023-08-24T08:40:32;11.73;;;4.72;;
33279;SDS011;20403;43.114;12.434;2023-08-24T08:43:02;15.18;;;4.90;;
33279;SDS011;20403;43.114;12.434;2023-08-24T08:45:27;9.05;;;4.57;;
33279;SDS011;20403;43.114;12.434;2023-08-24T08:48:00;13.90;;;5.18;;
33279;SDS011;20403;43.114;12.434;2023-08-24T08:50:26;13.75;;;4.65;;
33279;SDS011;20403;43.114;12.434;2023-08-24T08:52:52;7.78;;;3.83;;
33279;SDS011;20403;43.114;12.434;2023-08-24T08:55:18;13.70;;;4.97;;
33279;SDS011;20403;43.114;12.434;2023-08-24T08:57:45;10.52;;;4.28;;
33279;SDS011;20403;43.114;12.434;2023-08-24T09:00:13;10.52;;;4.93;;
33279;SDS011;20403;43.114;12.434;2023-08-24T09:02:42;13.18;;;4.72;;
33279;SDS011;20403;43.114;12.434;2023-08-24T09:05:09;15.30;;;5.20;;
33279;SDS011;20403;43.114;12.434;2023-08-24T09:07:35;11.48;;;4.82;;
33279;SDS011;20403;43.114;12.434;2023-08-24T09:10:04;9.43;;;4.70;;
33279;SDS011;20403;43.114;12.434;2023-08-24T09:12:31;6.07;;;4.47;;
33279;SDS011;20403;43.114;12.434;2023-08-24T09:15:02;11.48;;;4.60;;
33279;SDS011;20403;43.114;12.434;2023-08-24T09:17:29;9.15;;;4.18;;
33279;SDS011;20403;43.114;12.434;2023-08-24T09:19:58;12.35;;;4.85;;
33279;SDS011;20403;43.114;12.434;2023-08-24T09:24:50;18.73;;;4.87;;
33279;SDS011;20403;43.114;12.434;2023-08-24T09:27:20;11.32;;;4.72;;
33279;SDS011;20403;43.114;12.434;2023-08-24T09:29:50;10.27;;;5.35;;
33279;SDS011;20403;43.114;12.434;2023-08-24T09:32:29;7.30;;;3.75;;
33279;SDS011;20403;43.114;12.434;2023-08-24T09:35:01;13.75;;;5.40;;
33279;SDS011;20403;43.114;12.434;2023-08-24T09:37:31;20.92;;;5.45;;
33279;SDS011;20403;43.114;12.434;2023-08-24T09:40:02;7.32;;;4.97;;
33279;SDS011;20403;43.114;12.434;2023-08-24T09:42:41;11.82;;;6.95;;
33279;SDS011;20403;43.114;12.434;2023-08-24T09:45:08;13.35;;;7.82;;
33279;SDS011;20403;43.114;12.434;2023-08-24T09:47:37;15.57;;;7.95;;
33279;SDS011;20403;43.114;12.434;2023-08-24T09:50:03;15.30;;;9.23;;
33279;SDS011;20403;43.114;12.434;2023-08-24T09:52:32;12.45;;;6.90;;
33279;SDS011;20403;43.114;12.434;2023-08-24T09:55:04;10.27;;;5.95;;
33279;SDS011;20403;43.114;12.434;2023-08-24T09:57:37;17.50;;;6.85;;
33279;SDS011;20403;43.114;12.434;2023-08-24T10:00:07;13.45;;;6.00;;
33279;SDS011;20403;43.114;12.434;2023-08-24T10:02:36;8.88;;;4.88;;
33279;SDS011;20403;43.114;12.434;2023-08-24T10:05:06;7.95;;;4.72;;
33279;SDS011;20403;43.114;12.434;2023-08-24T10:07:33;9.70;;;4.88;;
33279;SDS011;20403;43.114;12.434;2023-08-24T10:10:03;9.48;;;5.70;;
33279;SDS011;20403;43.114;12.434;2023-08-24T10:12:36;10.05;;;5.45;;
33279;SDS011;20403;43.114;12.434;2023-08-24T10:15:06;7.07;;;4.60;;
33279;SDS011;20403;43.114;12.434;2023-08-24T10:17:33;8.57;;;5.05;;
33279;SDS011;20403;43.114;12.434;2023-08-24T10:20:00;10.45;;;5.30;;
33279;SDS011;20403;43.114;12.434;2023-08-24T10:22:28;8.38;;;4.88;;
33279;SDS011;20403;43.114;12.434;2023-08-24T10:24:54;9.65;;;4.75;;
33279;SDS011;20403;43.114;12.434;2023-08-24T10:27:22;12.68;;;5.18;;
33279;SDS011;20403;43.114;12.434;2023-08-24T10:29:49;11.95;;;4.68;;
33279;SDS011;20403;43.114;12.434;2023-08-24T10:32:14;9.20;;;4.82;;
33279;SDS011;20403;43.114;12.434;2023-08-24T10:34:40;9.18;;;4.78;;
33279;SDS011;20403;43.114;12.434;2023-08-24T10:37:09;9.35;;;5.03;;
33279;SDS011;20403;43.114;12.434;2023-08-24T10:39:35;10.02;;;4.72;;
33279;SDS011;20403;43.114;12.434;2023-08-24T10:42:03;13.70;;;5.15;;
33279;SDS011;20403;43.114;12.434;2023-08-24T10:44:35;6.40;;;4.45;;
33279;SDS011;20403;43.114;12.434;2023-08-24T10:47:05;5.93;;;4.45;;
33279;SDS011;20403;43.114;12.434;2023-08-24T10:49:37;9.70;;;4.40;;
33279;SDS011;20403;43.114;12.434;2023-08-24T10:52:19;15.90;;;4.85;;
33279;SDS011;20403;43.114;12.434;2023-08-24T10:54:51;5.60;;;4.20;;
33279;SDS011;20403;43.114;12.434;2023-08-24T10:57:27;7.90;;;4.22;;
33279;SDS011;20403;43.114;12.434;2023-08-24T11:02:30;7.93;;;4.63;;
33279;SDS011;20403;43.114;12.434;2023-08-24T11:05:51;9.48;;;4.30;;
33279;SDS011;20403;43.114;12.434;2023-08-24T11:10:23;5.85;;;4.53;;
33279;SDS011;20403;43.114;12.434;2023-08-24T11:15:31;5.20;;;4.47;;
33279;SDS011;20403;43.114;12.434;2023-08-24T11:18:10;13.52;;;5.57;;
33279;SDS011;20403;43.114;12.434;2023-08-24T11:23:25;8.85;;;5.25;;
33279;SDS011;20403;43.114;12.434;2023-08-24T11:25:52;9.40;;;5.60;;
33279;SDS011;20403;43.114;12.434;2023-08-24T11:28:20;8.05;;;4.88;;
33279;SDS011;20403;43.114;12.434;2023-08-24T11:30:46;7.90;;;5.25;;
33279;SDS011;20403;43.114;12.434;2023-08-24T11:33:12;5.70;;;5.10;;
33279;SDS011;20403;43.114;12.434;2023-08-24T11:35:40;5.63;;;5.00;;
33279;SDS011;20403;43.114;12.434;2023-08-24T11:38:07;5.45;;;4.43;;
33279;SDS011;20403;43.114;12.434;2023-08-24T11:40:33;7.80;;;4.93;;
33279;SDS011;20403;43.114;12.434;2023-08-24T11:42:58;6.57;;;4.90;;
33279;SDS011;20403;43.114;12.434;2023-08-24T11:45:29;8.05;;;5.18;;
33279;SDS011;20403;43.114;12.434;2023-08-24T11:47:57;9.48;;;5.57;;
33279;SDS011;20403;43.114;12.434;2023-08-24T11:50:24;6.93;;;4.70;;
33279;SDS011;20403;43.114;12.434;2023-08-24T11:52:49;11.13;;;4.85;;
33279;SDS011;20403;43.114;12.434;2023-08-24T11:55:15;6.72;;;5.03;;
33279;SDS011;20403;43.114;12.434;2023-08-24T11:57:41;6.78;;;5.15;;
33279;SDS011;20403;43.114;12.434;2023-08-24T12:00:07;6.65;;;4.65;;
33279;SDS011;20403;43.114;12.434;2023-08-24T12:02:34;6.20;;;4.80;;
33279;SDS011;20403;43.114;12.434;2023-08-24T12:05:00;9.32;;;4.75;;
33279;SDS011;20403;43.114;12.434;2023-08-24T12:07:27;6.55;;;4.78;;
33279;SDS011;20403;43.114;12.434;2023-08-24T12:09:52;7.55;;;5.35;;
33279;SDS011;20403;43.114;12.434;2023-08-24T12:12:19;7.18;;;4.68;;
33279;SDS011;20403;43.114;12.434;2023-08-24T12:14:46;8.68;;;4.75;;
33279;SDS011;20403;43.114;12.434;2023-08-24T12:17:13;6.68;;;4.90;;
33279;SDS011;20403;43.114;12.434;2023-08-24T12:19:43;5.00;;;4.40;;
33279;SDS011;20403;43.114;12.434;2023-08-24T12:22:12;6.20;;;4.80;;
33279;SDS011;20403;43.114;12.434;2023-08-24T12:24:47;6.18;;;4.78;;
33279;SDS011;20403;43.114;12.434;2023-08-24T12:27:22;8.02;;;5.15;;
33279;SDS011;20403;43.114;12.434;2023-08-24T12:29:51;9.10;;;4.90;;
33279;SDS011;20403;43.114;12.434;2023-08-24T12:32:16;8.82;;;5.10;;
33279;SDS011;20403;43.114;12.434;2023-08-24T12:34:45;8.05;;;5.28;;
33279;SDS011;20403;43.114;12.434;2023-08-24T12:37:11;6.38;;;4.90;;
33279;SDS011;20403;43.114;12.434;2023-08-24T12:39:39;7.63;;;4.80;;
33279;SDS011;20403;43.114;12.434;2023-08-24T12:42:05;7.30;;;5.32;;
33279;SDS011;20403;43.114;12.434;2023-08-24T12:44:31;5.25;;;4.60;;
33279;SDS011;20403;43.114;12.434;2023-08-24T12:46:57;11.00;;;4.95;;
33279;SDS011;20403;43.114;12.434;2023-08-24T12:49:22;6.38;;;4.65;;
33279;SDS011;20403;43.114;12.434;2023-08-24T12:51:47;7.90;;;4.72;;
33279;SDS011;20403;43.114;12.434;2023-08-24T12:54:13;5.80;;;5.13;;
33279;SDS011;20403;43.114;12.434;2023-08-24T12:56:39;7.07;;;4.82;;
33279;SDS011;20403;43.114;12.434;2023-08-24T12:59:06;14.02;;;4.70;;
33279;SDS011;20403;43.114;12.434;2023-08-24T13:01:31;8.32;;;5.07;;
33279;SDS011;20403;43.114;12.434;2023-08-24T13:03:57;7.07;;;4.32;;
33279;SDS011;20403;43.114;12.434;2023-08-24T13:06:22;5.90;;;4.38;;
33279;SDS011;20403;43.114;12.434;2023-08-24T13:08:47;11.85;;;5.10;;
33279;SDS011;20403;43.114;12.434;2023-08-24T13:11:13;5.13;;;4.55;;
33279;SDS011;20403;43.114;12.434;2023-08-24T13:13:38;6.60;;;4.90;;
33279;SDS011;20403;43.114;12.434;2023-08-24T13:16:04;7.63;;;4.32;;
33279;SDS011;20403;43.114;12.434;2023-08-24T13:18:29;14.10;;;5.18;;
33279;SDS011;20403;43.114;12.434;2023-08-24T13:20:54;4.95;;;4.53;;
33279;SDS011;20403;43.114;12.434;2023-08-24T13:23:20;6.80;;;4.22;;
33279;SDS011;20403;43.114;12.434;2023-08-24T13:25:45;7.80;;;4.25;;
33279;SDS011;20403;43.114;12.434;2023-08-24T13:28:11;6.88;;;4.53;;
33279;SDS011;20403;43.114;12.434;2023-08-24T13:30:36;6.70;;;4.13;;
33279;SDS011;20403;43.114;12.434;2023-08-24T13:33:02;21.95;;;4.70;;
33279;SDS011;20403;43.114;12.434;2023-08-24T13:35:27;12.82;;;4.93;;
33279;SDS011;20403;43.114;12.434;2023-08-24T13:37:53;6.82;;;3.80;;
33279;SDS011;20403;43.114;12.434;2023-08-24T13:40:18;5.72;;;4.45;;
33279;SDS011;20403;43.114;12.434;2023-08-24T13:42:44;8.13;;;4.05;;
33279;SDS011;20403;43.114;12.434;2023-08-24T13:45:09;6.88;;;4.70;;
33279;SDS011;20403;43.114;12.434;2023-08-24T13:47:35;90.60;;;8.57;;
33279;SDS011;20403;43.114;12.434;2023-08-24T13:50:00;18.98;;;5.32;;
33279;SDS011;20403;43.114;12.434;2023-08-24T13:52:26;10.65;;;4.22;;
33279;SDS011;20403;43.114;12.434;2023-08-24T13:54:51;9.18;;;3.95;;
33279;SDS011;20403;43.114;12.434;2023-08-24T13:57:17;7.53;;;4.03;;
33279;SDS011;20403;43.114;12.434;2023-08-24T13:59:42;9.15;;;4.47;;
33279;SDS011;20403;43.114;12.434;2023-08-24T14:02:08;7.15;;;4.05;;
33279;SDS011;20403;43.114;12.434;2023-08-24T14:04:33;7.85;;;3.80;;
33279;SDS011;20403;43.114;12.434;2023-08-24T14:06:59;5.72;;;3.70;;
33279;SDS011;20403;43.114;12.434;2023-08-24T14:09:24;5.13;;;3.95;;
33279;SDS011;20403;43.114;12.434;2023-08-24T14:11:50;10.07;;;4.07;;
33279;SDS011;20403;43.114;12.434;2023-08-24T14:14:15;8.85;;;3.70;;
33279;SDS011;20403;43.114;12.434;2023-08-24T14:16:41;8.70;;;3.45;;
33279;SDS011;20403;43.114;12.434;2023-08-24T14:19:06;4.13;;;3.30;;
33279;SDS011;20403;43.114;12.434;2023-08-24T14:21:32;5.43;;;3.67;;
33279;SDS011;20403;43.114;12.434;2023-08-24T14:23:57;7.00;;;3.50;;
33279;SDS011;20403;43.114;12.434;2023-08-24T14:26:23;5.32;;;3.50;;
33279;SDS011;20403;43.114;12.434;2023-08-24T14:28:55;4.72;;;3.00;;
33279;SDS011;20403;43.114;12.434;2023-08-24T14:31:23;6.80;;;3.58;;
33279;SDS011;20403;43.114;12.434;2023-08-24T14:33:50;5.18;;;2.50;;
33279;SDS011;20403;43.114;12.434;2023-08-24T14:36:16;5.85;;;3.05;;
33279;SDS011;20403;43.114;12.434;2023-08-24T14:38:42;5.53;;;2.70;;
33279;SDS011;20403;43.114;12.434;2023-08-24T14:41:11;5.72;;;2.95;;
33279;SDS011;20403;43.114;12.434;2023-08-24T14:43:38;5.18;;;2.78;;
33279;SDS011;20403;43.114;12.434;2023-08-24T14:46:03;4.63;;;2.85;;
33279;SDS011;20403;43.114;12.434;2023-08-24T14:48:29;3.53;;;2.40;;